createdAt,value
2017-10-15T00:02:08.708Z,25.00
2017-10-15T00:04:42.172Z,86.03
2017-10-15T00:07:14.498Z,23.73
2017-10-15T00:09:49.004Z,14.77
2017-10-15T00:12:21.505Z,14.70
2017-10-15T00:14:53.980Z,19.70
2017-10-15T00:17:25.908Z,25.03
2017-10-15T00:19:58.137Z,18.00
2017-10-15T00:22:30.200Z,15.80
2017-10-15T00:25:03.094Z,17.53
2017-10-15T00:27:35.897Z,18.03
2017-10-15T00:30:10.959Z,21.73
2017-10-15T00:32:45.512Z,22.47
2017-10-15T00:35:17.503Z,17.00
2017-10-15T00:37:49.986Z,13.03
2017-10-15T00:40:22.329Z,13.60
2017-10-15T00:42:54.490Z,17.93
2017-10-15T00:45:26.658Z,19.83
2017-10-15T00:47:59.210Z,24.03
2017-10-15T00:50:31.387Z,22.37
2017-10-15T00:53:19.204Z,29.03
2017-10-15T00:55:53.904Z,16.93
2017-10-15T00:58:26.192Z,16.10
2017-10-15T01:00:58.361Z,18.93
2017-10-15T01:03:30.972Z,24.23
2017-10-15T01:06:04.400Z,21.67
2017-10-15T01:08:37.313Z,18.73
2017-10-15T01:11:09.393Z,22.63
2017-10-15T01:13:43.918Z,15.63
2017-10-15T01:16:16.390Z,20.97
2017-10-15T01:18:49.378Z,23.67
2017-10-15T01:21:21.857Z,21.20
2017-10-15T01:23:53.980Z,24.00
2017-10-15T01:26:27.237Z,27.77
2017-10-15T01:28:59.547Z,22.20
2017-10-15T01:31:31.672Z,23.00
2017-10-15T01:34:05.862Z,24.17
2017-10-15T01:36:38.401Z,26.10
2017-10-15T01:39:11.879Z,23.10
2017-10-15T01:41:45.595Z,21.70
2017-10-15T01:44:17.862Z,30.60
2017-10-15T01:46:51.411Z,30.10
2017-10-15T01:49:23.512Z,27.27
2017-10-15T01:51:55.761Z,26.33
2017-10-15T01:54:28.107Z,19.70
2017-10-15T01:57:00.275Z,23.87
2017-10-15T01:59:32.736Z,24.00
2017-10-15T02:02:06.330Z,18.00
2017-10-15T02:04:38.362Z,25.00
2017-10-15T02:07:10.608Z,15.67
2017-10-15T02:09:43.770Z,17.13
2017-10-15T02:12:16.149Z,23.63
2017-10-15T02:14:48.892Z,19.23
2017-10-15T02:17:20.919Z,19.20
2017-10-15T02:19:53.317Z,20.90
2017-10-15T02:22:25.301Z,21.17
2017-10-15T02:24:57.540Z,18.97
2017-10-15T02:27:29.500Z,21.00
2017-10-15T02:30:02.897Z,19.97
2017-10-15T02:32:35.143Z,19.87
2017-10-15T02:35:08.040Z,15.33
2017-10-15T02:37:40.477Z,15.60
2017-10-15T02:40:13.280Z,23.90
2017-10-15T02:42:45.612Z,17.30
2017-10-15T02:45:17.848Z,15.90
2017-10-15T02:47:49.873Z,18.80
2017-10-15T02:50:22.428Z,16.03
2017-10-15T02:52:54.781Z,34.10
2017-10-15T02:55:26.800Z,19.47
2017-10-15T02:57:59.547Z,15.43
2017-10-15T03:00:31.686Z,23.67
2017-10-15T03:03:04.497Z,15.20
2017-10-15T03:06:39.535Z,12.20
2017-10-15T03:09:12.494Z,12.57
2017-10-15T03:11:46.196Z,18.77
2017-10-15T03:14:18.375Z,16.40
2017-10-15T03:16:50.637Z,17.33
2017-10-15T03:19:23.910Z,13.07
2017-10-15T03:21:55.941Z,19.63
2017-10-15T03:24:28.022Z,10.63
2017-10-15T03:27:00.594Z,12.37
2017-10-15T03:29:32.992Z,15.67
2017-10-15T03:32:09.531Z,9.37
2017-10-15T03:34:45.455Z,16.93
2017-10-15T03:37:17.516Z,11.20
2017-10-15T03:39:52.010Z,12.20
2017-10-15T03:42:24.127Z,15.83
2017-10-15T03:44:56.417Z,15.27
2017-10-15T03:47:28.422Z,11.00
2017-10-15T03:50:00.704Z,12.63
2017-10-15T03:52:33.092Z,11.20
2017-10-15T03:55:05.415Z,11.10
2017-10-15T03:57:38.515Z,10.20
2017-10-15T04:00:10.796Z,9.70
2017-10-15T04:02:45.278Z,14.43
2017-10-15T04:05:17.551Z,8.37
2017-10-15T04:07:49.631Z,18.00
2017-10-15T04:10:21.662Z,16.70
2017-10-15T04:12:54.507Z,11.00
2017-10-15T04:15:26.645Z,12.90
2017-10-15T04:18:01.392Z,12.10
2017-10-15T04:20:35.111Z,12.17
2017-10-15T04:23:08.578Z,13.30
2017-10-15T04:25:43.396Z,22.70
2017-10-15T04:28:20.831Z,18.60
2017-10-15T04:30:53.556Z,14.10
2017-10-15T04:33:25.792Z,22.07
2017-10-15T04:36:00.517Z,21.93
2017-10-15T04:38:32.832Z,16.50
2017-10-15T04:41:05.440Z,17.20
2017-10-15T04:43:38.444Z,16.63
2017-10-15T04:46:10.932Z,16.00
2017-10-15T04:48:51.192Z,14.73
2017-10-15T04:51:23.765Z,17.00
2017-10-15T04:53:56.227Z,16.87
2017-10-15T04:56:28.385Z,18.67
2017-10-15T04:59:00.450Z,24.47
2017-10-15T05:01:32.761Z,20.13
2017-10-15T05:04:07.456Z,16.80
2017-10-15T05:06:39.541Z,19.27
2017-10-15T05:09:15.542Z,35.17
2017-10-15T05:11:48.923Z,23.57
2017-10-15T05:14:21.432Z,27.03
2017-10-15T05:16:53.385Z,24.73
2017-10-15T05:19:25.340Z,22.00
2017-10-15T05:21:58.187Z,17.10
2017-10-15T05:24:30.920Z,17.57
2017-10-15T05:27:04.353Z,23.50
2017-10-15T05:29:37.716Z,25.70
2017-10-15T05:32:11.925Z,19.80
2017-10-15T05:34:49.381Z,17.10
2017-10-15T05:37:21.526Z,16.80
2017-10-15T05:39:54.297Z,14.23
2017-10-15T05:42:28.637Z,14.07
2017-10-15T05:45:01.325Z,13.57
2017-10-15T05:47:33.651Z,16.67
2017-10-15T05:50:08.757Z,15.20
2017-10-15T05:55:20.217Z,20.07
2017-10-15T05:57:53.603Z,16.63
2017-10-15T06:00:30.982Z,12.07
2017-10-15T06:03:12.256Z,12.17
2017-10-15T06:05:49.382Z,14.07
2017-10-15T06:08:26.445Z,16.83
2017-10-15T06:11:02.347Z,18.67
2017-10-15T06:13:35.061Z,10.83
2017-10-15T06:16:08.136Z,15.43
2017-10-15T06:18:40.053Z,16.13
2017-10-15T06:21:14.637Z,17.47
2017-10-15T06:23:49.354Z,14.87
2017-10-15T06:26:21.939Z,18.10
2017-10-15T06:28:53.888Z,18.07
2017-10-15T06:31:26.590Z,14.40
2017-10-15T06:33:58.548Z,17.83
2017-10-15T06:36:32.317Z,16.27
2017-10-15T06:39:08.647Z,17.47
2017-10-15T06:41:43.865Z,19.50
2017-10-15T06:44:17.010Z,17.10
2017-10-15T06:46:53.242Z,18.07
2017-10-15T06:49:25.777Z,14.87
2017-10-15T06:51:58.086Z,26.10
2017-10-15T06:57:36.511Z,17.17
2017-10-15T07:00:09.062Z,18.50
2017-10-15T07:02:41.579Z,24.63
2017-10-15T07:05:14.052Z,26.43
2017-10-15T07:07:46.281Z,20.90
2017-10-15T07:10:20.002Z,18.47
2017-10-15T07:12:53.078Z,27.00
2017-10-15T07:15:25.390Z,19.23
2017-10-15T07:17:59.145Z,35.70
2017-10-15T07:20:31.068Z,33.30
2017-10-15T07:23:03.880Z,46.27
2017-10-15T07:25:36.110Z,29.63
2017-10-15T07:28:08.087Z,25.63
2017-10-15T07:30:40.382Z,36.80
2017-10-15T07:36:21.813Z,34.53
2017-10-15T07:39:02.890Z,47.30
2017-10-15T07:41:36.779Z,114.20
2017-10-15T07:44:13.777Z,45.97
2017-10-15T07:46:50.017Z,74.23
2017-10-15T07:49:27.925Z,51.10
2017-10-15T07:55:09.380Z,57.50
2017-10-15T07:57:40.813Z,47.30
2017-10-15T08:00:13.923Z,33.77
2017-10-15T08:02:45.223Z,52.50
2017-10-15T08:05:18.285Z,28.37
2017-10-15T08:07:49.750Z,53.27
2017-10-15T08:10:21.683Z,45.40
2017-10-15T08:13:03.723Z,59.53
2017-10-15T08:15:35.219Z,34.63
2017-10-15T08:18:06.674Z,62.47
2017-10-15T08:20:38.058Z,55.47
2017-10-15T08:23:13.745Z,51.03
2017-10-15T08:25:45.229Z,56.07
2017-10-15T08:28:18.105Z,40.73
2017-10-15T08:30:50.797Z,52.27
2017-10-15T08:33:23.816Z,36.83
2017-10-15T08:35:56.957Z,40.97
2017-10-15T08:38:28.590Z,48.13
2017-10-15T08:41:00.243Z,34.63
2017-10-15T08:43:32.197Z,33.20
2017-10-15T08:46:06.741Z,26.40
2017-10-15T08:48:40.305Z,28.53
2017-10-15T08:51:15.785Z,26.57
2017-10-15T08:53:49.009Z,27.50
2017-10-15T08:56:21.724Z,27.13
2017-10-15T08:58:53.968Z,20.00
2017-10-15T09:01:28.382Z,12.97
2017-10-15T09:04:00.102Z,21.43
2017-10-15T09:06:32.199Z,13.23
2017-10-15T09:09:05.630Z,15.20
2017-10-15T09:11:38.124Z,24.90
2017-10-15T09:14:11.975Z,15.90
2017-10-15T09:16:44.620Z,15.07
2017-10-15T09:19:18.202Z,15.60
2017-10-15T09:21:54.547Z,13.20
2017-10-15T09:24:26.811Z,16.40
2017-10-15T09:26:58.577Z,13.30
2017-10-15T09:29:31.108Z,12.07
2017-10-15T09:32:08.480Z,9.30
2017-10-15T09:34:45.292Z,12.30
2017-10-15T09:37:26.102Z,9.80
2017-10-15T09:40:02.459Z,11.17
2017-10-15T09:42:37.849Z,11.13
2017-10-15T09:45:14.793Z,12.50
2017-10-15T09:48:13.107Z,8.40
2017-10-15T09:50:50.975Z,10.17
2017-10-15T09:53:26.377Z,8.60
2017-10-15T09:55:58.632Z,9.67
2017-10-15T09:58:30.976Z,7.17
2017-10-15T10:01:03.771Z,7.90
2017-10-15T10:03:35.720Z,6.60
2017-10-15T10:06:08.465Z,8.57
2017-10-15T10:08:40.786Z,9.37
2017-10-15T10:11:13.123Z,8.23
2017-10-15T10:13:45.595Z,8.87
2017-10-15T10:16:18.620Z,9.13
2017-10-15T10:18:56.382Z,8.70
2017-10-15T10:24:27.566Z,6.93
2017-10-15T10:27:01.052Z,9.80
2017-10-15T10:29:33.222Z,9.30
2017-10-15T10:32:07.913Z,9.23
2017-10-15T10:34:41.177Z,8.63
2017-10-15T10:37:18.575Z,8.13
2017-10-15T10:39:51.333Z,11.00
2017-10-15T10:42:24.768Z,9.43
2017-10-15T10:45:00.636Z,9.38
2017-10-15T10:47:33.610Z,8.27
2017-10-15T10:50:08.331Z,9.20
2017-10-15T10:52:42.221Z,10.32
2017-10-15T10:55:21.163Z,8.82
2017-10-15T10:58:27.186Z,9.55
2017-10-15T11:01:17.676Z,8.68
2017-10-15T11:04:02.561Z,9.20
2017-10-15T11:06:35.777Z,9.52
2017-10-15T11:09:22.849Z,17.45
2017-10-15T11:12:00.122Z,9.75
2017-10-15T11:14:39.805Z,15.98
2017-10-15T11:17:18.107Z,9.00
2017-10-15T11:19:50.655Z,14.18
2017-10-15T11:22:24.566Z,10.77
2017-10-15T11:25:00.328Z,11.68
2017-10-15T11:27:35.270Z,9.68
2017-10-15T11:30:13.451Z,13.00
2017-10-15T12:36:45.076Z,8.50
2017-10-15T12:39:23.986Z,5.95
2017-10-15T12:44:47.021Z,6.03
2017-10-15T12:47:35.924Z,5.57
2017-10-15T12:50:12.445Z,5.72
2017-10-15T12:52:45.398Z,6.35
2017-10-15T12:55:23.016Z,5.62
2017-10-15T13:00:38.487Z,6.45
2017-10-15T13:03:12.805Z,4.12
2017-10-15T13:05:54.872Z,6.90
2017-10-15T13:08:29.830Z,4.97
2017-10-15T13:11:03.100Z,4.93
2017-10-15T13:13:35.211Z,5.62
2017-10-15T13:16:07.582Z,6.10
2017-10-15T13:18:39.527Z,4.85
2017-10-15T13:21:12.392Z,5.07
2017-10-15T13:23:44.636Z,5.43
2017-10-15T13:26:16.716Z,4.78
2017-10-15T13:28:49.200Z,5.22
2017-10-15T13:31:22.704Z,8.02
2017-10-15T13:33:54.852Z,6.50
2017-10-15T13:36:27.776Z,6.65
2017-10-15T13:38:59.744Z,4.43
2017-10-15T13:41:31.963Z,5.50
2017-10-15T13:44:04.952Z,5.87
2017-10-15T13:46:37.131Z,9.40
2017-10-15T13:49:09.479Z,8.32
2017-10-15T13:51:41.655Z,5.50
2017-10-15T13:54:13.882Z,5.78
2017-10-15T13:56:46.006Z,5.22
2017-10-15T13:59:18.332Z,6.43
2017-10-15T14:01:50.759Z,6.73
2017-10-15T14:04:24.682Z,11.23
2017-10-15T14:06:56.671Z,8.10
2017-10-15T14:09:29.141Z,4.75
2017-10-15T14:12:01.402Z,5.03
2017-10-15T14:14:34.347Z,9.30
2017-10-15T14:17:06.687Z,5.43
2017-10-15T14:19:38.722Z,5.70
2017-10-15T14:22:34.081Z,4.70
2017-10-15T14:25:06.427Z,5.30
2017-10-15T14:27:39.653Z,4.30
2017-10-15T14:30:13.092Z,6.05
2017-10-15T14:32:46.564Z,6.22
2017-10-15T14:35:18.947Z,4.90
2017-10-15T14:37:51.065Z,5.55
2017-10-15T14:40:25.700Z,4.82
2017-10-15T14:42:58.418Z,3.95
2017-10-15T14:45:30.658Z,5.85
2017-10-15T14:48:05.520Z,4.22
2017-10-15T14:50:39.013Z,5.78
2017-10-15T14:53:12.223Z,8.07
2017-10-15T14:55:44.891Z,8.80
2017-10-15T14:58:17.249Z,6.93
2017-10-15T15:00:50.509Z,10.00
2017-10-15T15:03:27.598Z,8.27
2017-10-15T15:05:59.867Z,6.87
2017-10-15T15:08:32.814Z,6.03
2017-10-15T15:11:05.641Z,5.50
2017-10-15T15:13:37.909Z,5.37
2017-10-15T15:16:11.253Z,5.97
2017-10-15T15:18:43.505Z,6.10
2017-10-15T15:21:15.638Z,5.73
2017-10-15T15:23:48.008Z,6.37
2017-10-15T15:26:21.663Z,5.70
2017-10-15T15:28:54.173Z,5.27
2017-10-15T15:31:27.702Z,4.70
2017-10-15T15:33:59.719Z,5.27
2017-10-15T15:36:32.143Z,5.53
2017-10-15T15:39:06.960Z,5.87
2017-10-15T15:41:39.304Z,4.50
2017-10-15T15:44:11.854Z,10.33
2017-10-15T15:46:44.575Z,5.67
2017-10-15T15:49:17.913Z,5.10
2017-10-15T15:51:50.257Z,4.20
2017-10-15T15:54:27.438Z,7.37
2017-10-15T15:56:59.984Z,6.80
2017-10-15T15:59:32.389Z,4.93
2017-10-15T16:02:14.887Z,6.17
2017-10-15T16:04:47.171Z,5.23
2017-10-15T16:07:19.171Z,4.10
2017-10-15T16:09:53.011Z,17.73
2017-10-15T16:12:27.153Z,6.70
2017-10-15T16:14:59.389Z,6.17
2017-10-15T16:17:32.024Z,6.70
2017-10-15T16:23:15.069Z,8.20
2017-10-15T16:25:47.593Z,5.97
2017-10-15T16:28:20.578Z,13.50
2017-10-15T16:30:54.045Z,17.90
2017-10-15T16:33:28.432Z,10.50
2017-10-15T16:36:01.183Z,8.37
2017-10-15T16:38:35.035Z,11.03
2017-10-15T16:41:10.991Z,11.23
2017-10-15T16:43:46.809Z,6.70
2017-10-15T16:49:27.469Z,7.37
2017-10-15T16:52:06.705Z,14.53
2017-10-15T16:54:42.720Z,13.00
2017-10-15T17:03:22.286Z,14.43
2017-10-15T17:05:57.224Z,7.60
2017-10-15T17:08:32.665Z,7.17
2017-10-15T17:11:17.392Z,7.47
2017-10-15T17:13:50.299Z,6.43
2017-10-15T17:16:32.370Z,12.03
2017-10-15T17:19:07.048Z,8.50
2017-10-15T17:21:41.564Z,11.37
2017-10-15T17:24:15.718Z,7.73
2017-10-15T17:26:48.832Z,6.30
2017-10-15T17:29:20.618Z,9.10
2017-10-15T17:31:52.103Z,11.60
2017-10-15T17:34:27.519Z,13.80
2017-10-15T17:37:11.050Z,10.93
2017-10-15T17:42:49.192Z,6.53
2017-10-15T17:45:24.546Z,15.43
2017-10-15T17:47:56.839Z,8.47
2017-10-15T17:50:29.744Z,11.63
2017-10-15T17:53:05.322Z,10.50
2017-10-15T17:55:42.701Z,8.40
2017-10-15T17:58:24.052Z,9.00
2017-10-15T18:04:02.235Z,11.23
2017-10-15T18:06:35.271Z,9.50
2017-10-15T18:09:09.546Z,9.87
2017-10-15T18:11:41.632Z,10.73
2017-10-15T18:14:13.767Z,12.57
2017-10-15T18:16:46.559Z,31.40
2017-10-15T18:19:18.581Z,14.63
2017-10-15T18:21:55.627Z,10.90
2017-10-15T18:24:36.428Z,11.30
2017-10-15T18:27:10.321Z,17.30
2017-10-15T18:29:43.354Z,17.80
2017-10-15T18:32:16.147Z,22.43
2017-10-15T18:34:48.491Z,12.30
2017-10-15T18:37:22.281Z,19.47
2017-10-15T18:43:08.477Z,13.90
2017-10-15T18:45:56.876Z,15.23
2017-10-15T18:51:25.856Z,17.37
2017-10-15T18:53:58.942Z,22.80
2017-10-15T18:56:38.943Z,16.53
2017-10-15T19:05:13.796Z,15.60
2017-10-15T19:07:51.478Z,19.30
2017-10-15T19:13:19.858Z,13.80
2017-10-15T19:15:52.807Z,20.40
2017-10-15T19:18:30.863Z,21.03
2017-10-15T19:21:05.360Z,20.63
2017-10-15T19:23:41.773Z,19.93
2017-10-15T19:26:18.397Z,19.10
2017-10-15T19:28:49.732Z,22.33
2017-10-15T19:31:26.241Z,14.60
2017-10-15T19:37:11.252Z,28.17
2017-10-15T19:40:03.358Z,18.50
2017-10-15T19:42:36.814Z,19.03
2017-10-15T19:45:12.711Z,18.17
2017-10-15T19:47:44.354Z,19.40
2017-10-15T19:50:16.622Z,20.77
2017-10-15T19:52:56.691Z,20.13
2017-10-15T19:55:32.104Z,16.00
2017-10-15T19:58:10.696Z,17.30
2017-10-15T20:00:44.198Z,16.20
2017-10-15T20:03:16.031Z,17.00
2017-10-15T20:05:47.857Z,22.10
2017-10-15T20:08:19.463Z,21.53
2017-10-15T20:10:50.839Z,21.30
2017-10-15T20:13:22.901Z,22.73
2017-10-15T20:15:55.526Z,16.53
2017-10-15T20:18:30.525Z,24.13
2017-10-15T20:21:07.267Z,19.83
2017-10-15T20:23:42.617Z,24.80
2017-10-15T20:26:16.756Z,24.40
2017-10-15T20:28:59.635Z,25.40
2017-10-15T21:12:40.484Z,21.80
2017-10-15T21:15:14.860Z,26.63
2017-10-15T21:17:47.811Z,27.13
2017-10-15T21:20:20.003Z,35.80
2017-10-15T21:22:52.073Z,32.40
2017-10-15T21:25:26.546Z,41.83
2017-10-15T21:27:58.885Z,32.20
2017-10-15T21:33:14.049Z,31.57
2017-10-15T21:35:46.730Z,32.80
2017-10-15T21:38:19.358Z,27.80
2017-10-15T21:40:53.086Z,32.33
2017-10-15T21:43:28.760Z,46.40
2017-10-15T21:46:02.564Z,28.97
2017-10-15T21:48:35.469Z,37.03
2017-10-15T21:51:10.494Z,32.30
2017-10-15T21:53:42.933Z,32.87
2017-10-15T22:02:00.921Z,36.37
2017-10-15T22:04:33.285Z,48.13
2017-10-15T22:07:06.327Z,48.43
2017-10-15T22:09:38.261Z,31.30
2017-10-15T22:12:10.345Z,30.93
2017-10-15T22:14:42.383Z,37.80
2017-10-15T22:17:14.402Z,26.20
2017-10-15T22:19:46.353Z,31.90
2017-10-15T22:22:25.802Z,33.00
2017-10-15T22:24:58.182Z,37.83
2017-10-15T22:27:30.516Z,30.43
2017-10-15T22:30:04.651Z,23.87
2017-10-15T22:32:37.107Z,32.90
2017-10-15T22:35:13.077Z,24.27
2017-10-15T22:37:46.257Z,28.57
2017-10-15T22:43:23.825Z,23.47
2017-10-15T22:45:56.027Z,26.40
2017-10-15T22:48:36.641Z,21.00
2017-10-15T22:51:09.824Z,21.87
2017-10-15T22:53:41.854Z,16.67
2017-10-15T22:56:13.539Z,18.87
2017-10-15T22:58:47.122Z,17.70
2017-10-15T23:22:24.098Z,13.53
2017-10-15T23:24:55.321Z,12.03
2017-10-15T23:27:28.187Z,14.30
2017-10-15T23:29:59.459Z,17.07
2017-10-15T23:32:31.488Z,13.60
2017-10-15T23:35:05.285Z,15.50
2017-10-15T23:37:37.120Z,17.03
2017-10-15T23:40:12.841Z,18.87
2017-10-15T23:42:45.263Z,25.27
2017-10-15T23:45:17.737Z,14.63
2017-10-15T23:47:53.865Z,19.23
2017-10-15T23:50:26.524Z,16.43
2017-10-15T23:52:58.398Z,22.13
2017-10-15T23:57:58.078Z,14.70
